createdAt,value
2023-03-15T08:55:14.441Z,5.30
2023-03-15T08:57:44.877Z,4.80
2023-03-15T09:00:20.442Z,4.60
2023-03-15T09:02:55.296Z,5.80
2023-03-15T09:05:24.803Z,6.20
2023-03-15T09:07:56.149Z,5.60
2023-03-15T09:10:24.695Z,5.50
2023-03-15T09:12:55.762Z,6.40
2023-03-15T09:15:29.245Z,5.30
2023-03-15T09:17:57.842Z,6.60
2023-03-15T09:20:28.403Z,5.10
2023-03-15T09:23:01.102Z,6.50
2023-03-15T09:25:29.944Z,6.30
2023-03-15T09:27:58.270Z,6.20
2023-03-15T09:30:27.191Z,5.60
2023-03-15T09:32:56.048Z,5.70
2023-03-15T09:35:24.351Z,6.10
2023-03-15T09:37:53.623Z,6.40
2023-03-15T09:40:26.289Z,6.70
2023-03-15T09:43:02.772Z,6.80
2023-03-15T09:45:43.540Z,6.40
2023-03-15T09:48:18.054Z,6.00
2023-03-15T09:50:49.606Z,5.90
2023-03-15T09:53:32.413Z,7.10
2023-03-15T09:56:00.641Z,6.30
2023-03-15T09:58:35.463Z,6.80
2023-03-15T10:01:06.366Z,6.40
2023-03-15T10:03:52.077Z,6.10
2023-03-15T10:06:36.620Z,9.20
2023-03-15T10:09:16.003Z,13.50
2023-03-15T10:12:15.171Z,8.20
2023-03-15T10:15:08.720Z,7.40
2023-03-15T10:17:59.027Z,6.60
2023-03-15T10:20:30.081Z,8.70
2023-03-15T10:23:11.788Z,7.60
2023-03-15T10:25:40.015Z,10.00
2023-03-15T10:28:09.993Z,10.10
2023-03-15T10:30:39.652Z,8.40
2023-03-15T10:33:16.011Z,7.20
2023-03-15T10:35:44.671Z,8.00
2023-03-15T10:38:18.370Z,8.60
2023-03-15T10:41:06.468Z,7.50
2023-03-15T10:43:37.503Z,8.10
2023-03-15T10:46:10.126Z,7.90
2023-03-15T10:48:41.915Z,8.10
2023-03-15T10:51:18.242Z,8.70
2023-03-15T10:53:57.332Z,7.80
2023-03-15T10:56:31.316Z,6.30
2023-03-15T10:59:12.355Z,9.00
2023-03-15T11:01:41.838Z,8.20
2023-03-15T11:04:21.626Z,8.40
2023-03-15T11:06:59.215Z,9.10
2023-03-15T11:09:27.682Z,8.00
2023-03-15T11:12:00.237Z,7.80
2023-03-15T11:14:39.314Z,7.20
2023-03-15T11:17:12.170Z,7.40
2023-03-15T11:19:42.432Z,8.50
2023-03-15T11:22:11.478Z,7.90
2023-03-15T11:24:40.802Z,8.50
2023-03-15T11:27:16.858Z,8.50
2023-03-15T11:29:55.985Z,10.00
2023-03-15T11:32:29.408Z,8.70
2023-03-15T11:35:13.670Z,7.90
2023-03-15T11:38:06.267Z,8.10
2023-03-15T11:40:39.169Z,9.10
2023-03-15T11:43:18.608Z,8.80
2023-03-15T11:46:09.772Z,9.70
2023-03-15T11:48:50.641Z,8.20
2023-03-15T11:51:19.258Z,9.10
2023-03-15T11:53:52.643Z,7.80
2023-03-15T11:56:26.291Z,8.10
2023-03-15T11:59:05.076Z,7.80
2023-03-15T12:01:33.981Z,8.30
2023-03-15T12:04:30.594Z,8.10
2023-03-15T12:07:03.537Z,9.00
2023-03-15T12:09:37.390Z,9.80
2023-03-15T12:12:39.751Z,9.00
2023-03-15T12:15:14.187Z,8.60
2023-03-15T12:17:54.101Z,8.40
2023-03-15T12:20:40.866Z,8.80
2023-03-15T12:23:21.281Z,8.10
2023-03-15T12:26:05.528Z,8.10
2023-03-15T12:28:37.697Z,7.60
2023-03-15T12:31:08.453Z,8.80
2023-03-15T12:33:51.448Z,7.10
2023-03-15T12:36:40.298Z,9.10
2023-03-15T12:39:17.704Z,8.20
2023-03-15T12:41:48.974Z,7.70
2023-03-15T12:44:33.288Z,10.60
2023-03-15T12:47:05.678Z,9.00
2023-03-15T12:49:37.713Z,8.80
2023-03-15T12:52:15.929Z,9.10
2023-03-15T12:54:47.248Z,8.40
2023-03-15T12:57:22.325Z,10.20
2023-03-15T12:59:52.110Z,10.40
2023-03-15T13:02:42.089Z,9.20
2023-03-15T13:05:21.448Z,10.00
2023-03-15T13:07:54.104Z,9.70
2023-03-15T13:10:51.895Z,10.70
2023-03-15T13:13:39.004Z,15.20
2023-03-15T13:16:26.507Z,11.40
2023-03-15T13:19:23.180Z,10.20
2023-03-15T13:22:54.980Z,10.20
2023-03-15T13:25:31.107Z,10.40
2023-03-15T13:28:00.431Z,9.20
2023-03-15T13:30:39.058Z,8.90
2023-03-15T13:33:26.875Z,11.50
2023-03-15T13:36:28.249Z,10.80
2023-03-15T13:38:57.775Z,11.90
2023-03-15T13:41:29.965Z,9.30
2023-03-15T13:43:59.470Z,10.30
2023-03-15T13:46:33.895Z,10.20
2023-03-15T13:49:02.820Z,9.60
2023-03-15T13:51:35.380Z,10.10
2023-03-15T13:54:13.770Z,7.60
2023-03-15T13:57:06.468Z,8.70
2023-03-15T13:59:36.177Z,7.00
2023-03-15T14:02:05.363Z,8.90
2023-03-15T14:04:36.428Z,8.90
2023-03-15T14:07:26.388Z,9.50
2023-03-15T14:10:17.181Z,8.50
2023-03-15T14:12:46.407Z,9.10
2023-03-15T14:15:22.627Z,8.50
2023-03-15T14:18:02.739Z,9.30
2023-03-15T14:20:39.677Z,8.70
2023-03-15T14:23:13.538Z,8.30
2023-03-15T14:25:45.242Z,9.50
2023-03-15T14:28:16.261Z,10.00
2023-03-15T14:30:56.080Z,7.60
2023-03-15T14:33:31.950Z,9.90
2023-03-15T14:36:05.437Z,9.00
2023-03-15T14:38:39.138Z,9.30
2023-03-15T14:41:27.324Z,9.30
2023-03-15T14:43:56.878Z,8.20
2023-03-15T14:46:27.884Z,7.60
2023-03-15T14:48:57.183Z,8.20
2023-03-15T14:51:25.976Z,6.90
2023-03-15T14:53:56.409Z,6.90
2023-03-15T14:56:25.499Z,7.80
2023-03-15T14:58:56.867Z,7.20
2023-03-15T15:01:27.185Z,7.40
2023-03-15T15:04:01.818Z,7.90
2023-03-15T15:06:32.084Z,7.80
2023-03-15T15:09:01.663Z,7.40
2023-03-15T15:11:30.295Z,6.50
2023-03-15T15:14:04.545Z,7.00
2023-03-15T15:16:33.253Z,6.90
2023-03-15T15:19:01.621Z,7.10
2023-03-15T15:21:34.163Z,7.00
2023-03-15T15:24:04.838Z,8.50
2023-03-15T15:26:33.880Z,7.50
2023-03-15T15:29:03.202Z,8.90
2023-03-15T15:31:35.354Z,7.80
2023-03-15T15:34:04.579Z,8.20
2023-03-15T15:36:35.491Z,6.60
2023-03-15T15:39:06.613Z,7.30
2023-03-15T15:41:35.735Z,6.80
2023-03-15T15:44:18.372Z,6.10
2023-03-15T15:46:47.719Z,8.60
2023-03-15T15:49:16.820Z,7.20
2023-03-15T15:51:47.037Z,8.30
2023-03-15T15:54:21.017Z,7.70
2023-03-15T15:56:53.590Z,8.10
2023-03-15T15:59:22.011Z,9.30
2023-03-15T16:02:00.017Z,8.60
2023-03-15T16:04:30.331Z,7.60
2023-03-15T16:07:02.553Z,6.90
2023-03-15T16:09:32.736Z,6.90
2023-03-15T16:12:02.871Z,6.80
2023-03-15T16:14:32.477Z,5.70
2023-03-15T16:17:01.401Z,5.90
2023-03-15T16:19:31.073Z,6.30
2023-03-15T16:21:59.457Z,6.20
2023-03-15T16:24:30.288Z,6.60
2023-03-15T16:27:03.064Z,6.00
2023-03-15T16:29:43.284Z,7.40
2023-03-15T16:32:20.863Z,7.50
2023-03-15T16:34:55.144Z,6.70
2023-03-15T16:37:29.181Z,6.30
2023-03-15T16:39:57.495Z,6.10
2023-03-15T16:42:26.258Z,6.80
2023-03-15T16:44:55.131Z,8.90
2023-03-15T16:47:23.719Z,7.40
2023-03-15T16:49:53.533Z,7.20
2023-03-15T16:52:21.822Z,6.30
2023-03-15T16:54:50.199Z,7.60
2023-03-15T16:57:21.999Z,7.00
2023-03-15T16:59:51.121Z,8.20
2023-03-15T17:02:21.605Z,7.80
2023-03-15T17:04:49.768Z,8.20
2023-03-15T17:07:18.077Z,8.30
2023-03-15T17:09:47.252Z,7.70
2023-03-15T17:12:24.029Z,11.20
2023-03-15T17:14:55.357Z,13.00
2023-03-15T17:17:24.836Z,11.10
2023-03-15T17:19:53.395Z,9.50
2023-03-15T17:22:22.268Z,8.20
2023-03-15T17:24:51.168Z,7.20
2023-03-15T17:27:30.724Z,7.50
2023-03-15T17:29:59.037Z,7.70
2023-03-15T17:32:27.362Z,9.30
2023-03-15T17:34:59.166Z,8.40
2023-03-15T17:37:27.410Z,9.40
2023-03-15T17:39:56.861Z,8.70
2023-03-15T17:42:25.201Z,9.70
2023-03-15T17:44:54.399Z,9.30
2023-03-15T17:47:22.675Z,10.70
2023-03-15T17:49:51.491Z,13.50
2023-03-15T17:52:21.189Z,15.30
2023-03-15T17:54:49.567Z,12.40
2023-03-15T17:57:18.548Z,8.90
2023-03-15T17:59:47.032Z,8.50
2023-03-15T18:02:16.069Z,10.90
2023-03-15T18:04:44.246Z,11.60
2023-03-15T18:07:14.970Z,12.10
2023-03-15T18:09:43.247Z,12.80
2023-03-15T18:12:13.195Z,11.20
2023-03-15T18:14:42.601Z,13.20
2023-03-15T18:17:11.604Z,11.80
2023-03-15T18:19:42.005Z,9.10
2023-03-15T18:22:14.891Z,9.40
2023-03-15T18:24:47.076Z,9.20
2023-03-15T18:27:15.630Z,8.70
2023-03-15T18:29:48.483Z,9.10
2023-03-15T18:32:17.015Z,7.10
2023-03-15T18:34:45.474Z,8.30
2023-03-15T18:37:15.314Z,8.90
2023-03-15T18:39:44.006Z,7.50
2023-03-15T18:42:13.103Z,10.30
2023-03-15T18:44:44.056Z,9.00
2023-03-15T18:47:12.222Z,9.60
2023-03-15T18:49:45.349Z,9.40
2023-03-15T18:52:15.273Z,8.90
2023-03-15T18:54:45.665Z,9.20
2023-03-15T18:57:13.942Z,8.10
2023-03-15T18:59:42.223Z,7.60
2023-03-15T19:02:11.161Z,8.10
2023-03-15T19:04:39.404Z,7.80
2023-03-15T19:07:10.447Z,7.90
2023-03-15T19:09:39.239Z,8.10
2023-03-15T19:12:07.833Z,7.10
2023-03-15T19:14:37.761Z,8.50
2023-03-15T19:17:06.855Z,7.90
2023-03-15T19:19:35.232Z,9.80
2023-03-15T19:22:06.368Z,9.60
2023-03-15T19:24:36.423Z,10.30
2023-03-15T19:27:04.878Z,10.80
2023-03-15T19:29:33.225Z,11.30
2023-03-15T19:32:01.337Z,12.00
2023-03-15T19:34:33.521Z,12.50
2023-03-15T19:37:01.901Z,11.60
2023-03-15T19:39:29.990Z,12.90
2023-03-15T19:41:58.289Z,11.50
2023-03-15T19:44:27.501Z,10.60
2023-03-15T19:46:59.313Z,9.10
2023-03-15T19:49:27.707Z,10.00
2023-03-15T19:51:55.837Z,9.40
2023-03-15T19:54:24.768Z,10.40
2023-03-15T19:56:54.687Z,9.00
2023-03-15T19:59:22.854Z,10.00
2023-03-15T20:01:51.471Z,9.20
2023-03-15T20:04:19.842Z,9.80
2023-03-15T20:06:49.062Z,12.10
2023-03-15T20:09:17.223Z,11.00
2023-03-15T20:11:49.388Z,11.10
2023-03-15T20:14:21.975Z,10.30
2023-03-15T20:16:50.463Z,10.80
2023-03-15T20:19:23.722Z,11.10
2023-03-15T20:21:52.344Z,11.50
2023-03-15T20:24:20.727Z,22.40
2023-03-15T20:26:51.978Z,28.70
2023-03-15T20:29:22.538Z,28.50
2023-03-15T20:31:53.502Z,29.80
2023-03-15T20:34:22.346Z,37.50
2023-03-15T20:36:52.807Z,40.20
2023-03-15T20:39:24.245Z,23.90
2023-03-15T20:41:54.101Z,19.00
2023-03-15T20:44:22.429Z,17.80
2023-03-15T20:46:55.203Z,20.10
2023-03-15T20:49:23.810Z,15.30
2023-03-15T20:51:52.079Z,12.90
2023-03-15T20:54:21.088Z,15.30
2023-03-15T20:56:49.662Z,13.80
2023-03-15T20:59:18.193Z,15.70
2023-03-15T21:01:49.525Z,11.60
2023-03-15T21:04:18.204Z,11.30
2023-03-15T21:06:46.366Z,10.80
2023-03-15T21:09:15.013Z,10.00
2023-03-15T21:11:43.239Z,10.10
2023-03-15T21:14:11.836Z,9.60
2023-03-15T21:16:41.498Z,9.90
2023-03-15T21:19:09.763Z,10.80
2023-03-15T21:21:43.543Z,11.60
2023-03-15T21:24:12.562Z,11.40
2023-03-15T21:26:44.093Z,12.10
2023-03-15T21:29:13.888Z,12.80
2023-03-15T21:31:42.246Z,12.10
2023-03-15T21:34:10.643Z,12.50
2023-03-15T21:36:39.544Z,14.20
2023-03-15T21:39:08.546Z,12.70
2023-03-15T21:41:39.260Z,14.40
2023-03-15T21:44:07.659Z,15.70
2023-03-15T21:46:36.553Z,12.90
2023-03-15T21:49:07.046Z,13.00
2023-03-15T21:51:35.361Z,11.20
2023-03-15T21:54:09.277Z,12.50
2023-03-15T21:56:37.640Z,14.30
2023-03-15T21:59:06.041Z,12.10
2023-03-15T22:01:36.444Z,10.90
2023-03-15T22:04:04.691Z,10.90
2023-03-15T22:06:35.199Z,9.60
2023-03-15T22:09:04.514Z,8.20
2023-03-15T22:11:32.972Z,10.40
2023-03-15T22:14:01.046Z,9.70
2023-03-15T22:16:30.144Z,11.70
2023-03-15T22:18:59.263Z,15.70
2023-03-15T22:21:27.427Z,24.50
2023-03-15T22:23:55.611Z,28.30
2023-03-15T22:26:26.524Z,27.20
2023-03-15T22:28:54.997Z,27.20
2023-03-15T22:31:23.314Z,20.80
2023-03-15T22:33:54.056Z,21.60
2023-03-15T22:36:23.154Z,23.80
2023-03-15T22:38:54.503Z,35.50
2023-03-15T22:41:24.231Z,48.50
2023-03-15T22:43:55.340Z,50.40
2023-03-15T22:46:23.738Z,42.50
2023-03-15T22:48:51.852Z,29.90
2023-03-15T22:51:21.957Z,21.30
2023-03-15T22:53:50.073Z,17.80
2023-03-15T22:56:18.243Z,15.10
2023-03-15T22:58:47.512Z,15.40
2023-03-15T23:01:15.999Z,15.10
2023-03-15T23:03:44.391Z,13.80
2023-03-15T23:06:13.272Z,12.80
2023-03-15T23:08:42.795Z,11.40
2023-03-15T23:11:11.788Z,11.30
2023-03-15T23:13:40.068Z,11.10
2023-03-15T23:16:10.435Z,11.50
2023-03-15T23:18:40.111Z,11.20
2023-03-15T23:21:09.957Z,12.20
2023-03-15T23:23:43.120Z,11.50
2023-03-15T23:26:13.080Z,11.20
2023-03-15T23:28:43.791Z,9.30
2023-03-15T23:31:12.099Z,9.40
2023-03-15T23:33:40.349Z,10.10
2023-03-15T23:36:08.931Z,9.40
2023-03-15T23:38:37.406Z,9.00
2023-03-15T23:41:09.687Z,9.50
2023-03-15T23:43:38.444Z,10.20
2023-03-15T23:46:06.743Z,10.00
2023-03-15T23:48:36.476Z,10.30
2023-03-15T23:51:05.052Z,10.10
2023-03-15T23:53:36.076Z,9.20
2023-03-15T23:56:05.556Z,10.80
2023-03-15T23:58:34.003Z,8.80
